Time;durP1;ratioP1;P1;durP2;ratioP2;P2;SDS_P1;SDS_P2;PMS_P1;PMS_P2;Temp;Humidity;BMP_temperature;BMP_pressure;BME280_temperature;BME280_humidity;BME280_pressure;Samples;Min_cycle;Max_cycle;Signal;HPM_P1;HPM_P2
2021/03/06 00:05:13;;;;;;;10.60;5.18;;;1.60;90.10;;;;;;6245367;23;20097;-87
2021/03/06 00:14:59;;;;;;;10.27;4.72;;;1.50;90.20;;;;;;6246520;23;20407;-87
2021/03/06 00:36:45;;;;;;;;;;;;;;;;;;;;;
2021/03/06 00:40:14;;;;;;;10.60;4.68;;;1.20;90.30;;;;;;5981855;23;20089;-86
2021/03/06 00:43:40;;;;;;;9.70;4.57;;;1.30;90.30;;;;;;5861844;24;20027;-86
2021/03/06 01:12:47;;;;;;;10.35;4.75;;;1.10;90.50;;;;;;5897884;24;20093;-86
2021/03/06 01:49:06;;;;;;;10.33;4.83;;;0.80;90.30;;;;;;5913565;24;20328;-86
2021/03/06 01:55:42;;;;;;;9.80;4.68;;;0.80;90.40;;;;;;6003271;23;20097;-87
2021/03/06 01:58:32;;;;;;;12.90;4.95;;;0.80;90.40;;;;;;6095155;23;20463;-87
2021/03/06 02:01:09;;;;;;;12.07;5.45;;;0.80;90.30;;;;;;6090599;23;20031;-86
2021/03/06 02:03:35;;;;;;;13.20;4.85;;;0.80;90.50;;;;;;6095297;23;20029;-87
2021/03/06 02:06:07;;;;;;;10.35;5.00;;;0.80;90.40;;;;;;6095018;23;20022;-87
2021/03/06 02:08:42;;;;;;;13.15;5.43;;;0.80;90.50;;;;;;6094132;23;20022;-87
2021/03/06 02:11:10;;;;;;;9.13;4.88;;;0.80;90.60;;;;;;6095175;23;20388;-88
2021/03/06 02:14:03;;;;;;;12.77;5.00;;;0.80;90.70;;;;;;6147957;23;20096;-87
2021/03/06 02:16:50;;;;;;;11.30;4.80;;;0.90;90.90;;;;;;6186172;23;20315;-87
2021/03/06 02:29:49;;;;;;;9.20;4.70;;;0.90;90.80;;;;;;6184743;23;20017;-87
2021/03/06 02:33:20;;;;;;;8.88;4.75;;;0.90;90.90;;;;;;6186097;23;20017;-87
2021/03/06 02:36:09;;;;;;;11.18;4.55;;;1.00;90.70;;;;;;6185068;23;20045;-88
2021/03/06 02:38:38;;;;;;;11.00;4.55;;;1.00;90.70;;;;;;6186404;23;20016;-88
2021/03/06 02:41:32;;;;;;;10.57;4.82;;;1.00;90.70;;;;;;6186245;23;20020;-88
2021/03/06 02:44:41;;;;;;;11.07;4.40;;;1.00;90.60;;;;;;6185020;23;20021;-88
2021/03/06 02:55:45;;;;;;;7.63;4.00;;;1.00;90.50;;;;;;6010349;23;20048;-89
2021/03/06 03:30:46;;;;;;;10.32;3.83;;;1.10;90.30;;;;;;6214921;23;20016;-88
2021/03/06 03:34:12;;;;;;;;;;;;;;;;;;;;;
2021/03/06 03:58:13;;;;;;;7.45;3.10;;;1.30;90.50;;;;;;6215034;23;20012;-88
2021/03/06 04:04:50;;;;;;;8.48;3.45;;;1.40;90.50;;;;;;6214927;23;20017;-89
2021/03/06 04:07:44;;;;;;;7.07;3.28;;;1.40;90.50;;;;;;6214420;23;20453;-89
2021/03/06 04:10:37;;;;;;;9.80;3.33;;;1.40;90.50;;;;;;6215166;23;20086;-90
2021/03/06 04:29:46;;;;;;;7.95;2.95;;;1.50;90.50;;;;;;6186253;23;20024;-89
2021/03/06 04:32:13;;;;;;;7.72;3.10;;;1.40;90.50;;;;;;6215447;23;20017;-87
2021/03/06 04:34:40;;;;;;;7.72;3.00;;;1.50;90.40;;;;;;6214428;23;20023;-89
2021/03/06 04:37:10;;;;;;;9.95;2.95;;;1.50;90.50;;;;;;6215023;23;20370;-88
2021/03/06 04:39:36;;;;;;;6.65;3.00;;;1.50;90.50;;;;;;6215567;23;20017;-88
2021/03/06 04:42:04;;;;;;;6.97;2.63;;;1.50;90.40;;;;;;6244585;23;20012;-88
2021/03/06 04:45:08;;;;;;;7.55;3.30;;;1.50;90.40;;;;;;6244838;23;20020;-88
2021/03/06 04:50:07;;;;;;;6.38;2.90;;;1.60;90.40;;;;;;6209483;23;20052;-91
2021/03/06 04:53:11;;;;;;;8.65;2.80;;;1.50;90.40;;;;;;6245436;23;20094;-91
2021/03/06 04:55:46;;;;;;;6.30;2.55;;;1.60;90.40;;;;;;6245879;23;20061;-89
2021/03/06 05:38:11;;;;;;;5.78;2.88;;;1.70;90.40;;;;;;6096655;23;20110;-92
2021/03/06 05:40:44;;;;;;;6.32;3.03;;;1.70;90.50;;;;;;6129259;23;20043;-91
2021/03/06 05:43:10;;;;;;;6.07;2.60;;;1.70;90.50;;;;;;6247882;23;20473;-93
2021/03/06 05:45:49;;;;;;;7.10;2.47;;;1.80;90.60;;;;;;6247000;23;20095;-92
2021/03/06 05:48:52;;;;;;;7.82;2.70;;;1.80;90.50;;;;;;6248181;23;20038;-93
2021/03/06 05:51:42;;;;;;;5.93;2.60;;;1.80;90.50;;;;;;6248433;23;20016;-93
2021/03/06 05:54:33;;;;;;;7.18;2.40;;;1.80;90.60;;;;;;6247832;23;20020;-93
2021/03/06 05:57:48;;;;;;;7.80;2.50;;;1.80;90.60;;;;;;6248516;23;20070;-92
2021/03/06 06:00:41;;;;;;;7.28;2.28;;;1.80;90.50;;;;;;6096083;23;20018;-91
2021/03/06 06:03:35;;;;;;;8.95;2.90;;;1.80;90.50;;;;;;6114579;23;20023;-93
2021/03/06 07:35:03;;;;;;;7.53;2.00;;;2.30;90.40;;;;;;6244240;23;20432;-86
2021/03/06 07:49:50;;;;;;;;;;;;;;;;;;;;;
2021/03/06 08:18:00;;;;;;;6.90;1.65;;;2.70;90.60;;;;;;6186438;23;20016;-90
2021/03/06 08:38:47;;;;;;;4.90;1.40;;;2.90;90.70;;;;;;6185320;23;20029;-90
2021/03/06 08:41:45;;;;;;;3.38;1.00;;;2.90;90.70;;;;;;6187121;23;20017;-90
2021/03/06 08:44:11;;;;;;;8.07;1.08;;;3.00;90.60;;;;;;6096395;23;20018;-87
2021/03/06 08:54:08;;;;;;;5.60;1.35;;;3.10;90.80;;;;;;6187483;23;20059;-89
2021/03/06 08:56:53;;;;;;;4.45;1.23;;;3.30;90.80;;;;;;6187679;23;20028;-88
2021/03/06 08:59:40;;;;;;;4.97;1.25;;;3.30;90.80;;;;;;6187454;23;20021;-87
2021/03/06 09:59:54;;;;;;;8.23;1.42;;;4.30;90.60;;;;;;6216789;23;20020;-88
2021/03/06 11:28:46;;;;;;;5.50;1.10;;;5.60;90.00;;;;;;6095622;23;20042;-88
2021/03/06 11:31:44;;;;;;;6.85;1.25;;;5.70;89.90;;;;;;6189705;22;20032;-90
2021/03/06 11:51:46;;;;;;;6.05;1.17;;;6.00;89.10;;;;;;6198479;23;20020;-91
2021/03/06 12:21:46;;;;;;;3.95;0.98;;;6.70;86.80;;;;;;6186816;23;20092;-87
2021/03/06 12:24:34;;;;;;;4.70;1.35;;;6.80;86.40;;;;;;6186744;23;20027;-90
2021/03/06 12:35:11;;;;;;;5.18;1.08;;;6.80;85.60;;;;;;6248336;23;20290;-89
2021/03/06 13:37:36;;;;;;;5.25;1.40;;;6.80;86.30;;;;;;6215473;23;20020;-85
2021/03/06 13:44:43;;;;;;;5.43;1.38;;;6.80;86.10;;;;;;6094777;23;20053;-90
2021/03/06 13:47:53;;;;;;;5.80;1.05;;;6.90;86.50;;;;;;5953794;24;20453;-90
2021/03/06 13:54:16;;;;;;;4.53;1.10;;;6.90;86.30;;;;;;6216263;23;20043;-93
2021/03/06 13:57:36;;;;;;;6.65;1.20;;;6.90;86.40;;;;;;6225677;23;20388;-93
2021/03/06 14:15:44;;;;;;;3.58;1.38;;;6.90;86.90;;;;;;6010951;23;20023;-92
2021/03/06 14:19:00;;;;;;;;;;;;;;;;;;;;;
2021/03/06 14:28:26;;;;;;;4.50;1.50;;;7.00;86.60;;;;;;6218799;23;20029;-92
2021/03/06 14:38:18;;;;;;;3.05;1.45;;;7.00;87.40;;;;;;6210867;23;20357;-92
2021/03/06 14:41:48;;;;;;;4.55;1.55;;;7.00;87.50;;;;;;6184779;23;20453;-90
2021/03/06 14:44:50;;;;;;;5.45;1.70;;;7.00;88.10;;;;;;6184520;23;20021;-93
2021/03/06 14:50:54;;;;;;;7.72;1.88;;;7.00;87.40;;;;;;6170398;23;20537;-91
2021/03/06 14:53:54;;;;;;;5.43;1.60;;;7.00;87.80;;;;;;6067526;23;20456;-94
2021/03/06 15:00:22;;;;;;;7.18;1.70;;;7.00;87.60;;;;;;6071669;23;20021;-93
2021/03/06 15:02:50;;;;;;;4.28;1.60;;;7.00;87.70;;;;;;6124484;23;20137;-93
2021/03/06 15:05:19;;;;;;;4.65;1.55;;;7.00;87.40;;;;;;6124564;23;20058;-92
2021/03/06 15:07:52;;;;;;;5.90;1.50;;;7.00;87.90;;;;;;6123912;23;20018;-89
2021/03/06 15:10:17;;;;;;;5.72;1.33;;;7.00;88.00;;;;;;6126993;23;20041;-90
2021/03/06 15:12:52;;;;;;;4.03;1.58;;;7.00;87.80;;;;;;6216789;23;20028;-91
2021/03/06 15:15:45;;;;;;;7.45;2.00;;;7.10;87.90;;;;;;6215368;23;20016;-89
2021/03/06 15:40:46;;;;;;;4.90;1.95;;;6.90;87.70;;;;;;6246691;23;20020;-90
2021/03/06 15:43:15;;;;;;;7.00;1.80;;;6.90;88.10;;;;;;6244466;23;20479;-92
2021/03/06 15:45:40;;;;;;;5.18;1.92;;;6.90;88.30;;;;;;6246090;23;20389;-91
2021/03/06 15:48:13;;;;;;;8.32;2.03;;;6.90;88.30;;;;;;6246326;23;20016;-92
2021/03/06 15:50:53;;;;;;;4.68;1.80;;;6.90;88.60;;;;;;6245430;23;20040;-92
2021/03/06 15:53:55;;;;;;;5.93;1.80;;;6.90;88.80;;;;;;6210870;23;20024;-92
2021/03/06 15:56:40;;;;;;;7.63;2.08;;;6.90;88.30;;;;;;6245157;23;20095;-90
2021/03/06 15:59:09;;;;;;;7.50;1.95;;;6.90;88.30;;;;;;6241436;23;20023;-91
2021/03/06 16:01:38;;;;;;;7.50;2.30;;;6.90;87.90;;;;;;6246268;23;20020;-91
2021/03/06 16:04:10;;;;;;;5.70;1.80;;;6.90;87.40;;;;;;6245500;23;20075;-94
2021/03/06 16:06:42;;;;;;;5.80;2.15;;;6.90;87.90;;;;;;6246750;23;20012;-92
2021/03/06 16:09:13;;;;;;;6.03;1.85;;;6.90;88.30;;;;;;6246811;23;20340;-90
2021/03/06 16:11:45;;;;;;;8.27;2.17;;;6.90;88.20;;;;;;6244638;23;20029;-91
2021/03/06 16:14:11;;;;;;;9.00;2.17;;;6.80;86.90;;;;;;6245153;23;20392;-91
2021/03/06 16:16:37;;;;;;;5.15;1.88;;;6.80;87.60;;;;;;6246059;23;20016;-92
2021/03/06 16:19:12;;;;;;;7.18;2.05;;;6.80;88.10;;;;;;6245698;23;20027;-91
2021/03/06 16:21:43;;;;;;;6.95;1.90;;;6.90;88.00;;;;;;6246814;23;20012;-92
2021/03/06 16:24:36;;;;;;;5.97;1.90;;;6.90;88.10;;;;;;6246305;23;20026;-91
2021/03/06 16:27:09;;;;;;;7.03;2.00;;;6.90;88.50;;;;;;6245785;23;20018;-92
2021/03/06 16:29:46;;;;;;;5.07;2.00;;;6.90;88.50;;;;;;6246655;23;20016;-92
2021/03/06 16:35:44;;;;;;;9.40;2.17;;;6.90;88.60;;;;;;6179363;23;20096;-88
2021/03/06 16:38:14;;;;;;;8.88;2.13;;;6.90;88.80;;;;;;6182326;23;20092;-87
2021/03/06 16:41:35;;;;;;;5.63;1.88;;;6.90;88.70;;;;;;6181545;23;20021;-93
2021/03/06 16:48:04;;;;;;;6.80;1.83;;;6.90;88.20;;;;;;6181815;23;19950;-88
2021/03/06 16:50:50;;;;;;;6.85;2.20;;;6.90;89.10;;;;;;6182804;23;20015;-89
2021/03/06 16:54:05;;;;;;;4.88;2.10;;;6.90;89.20;;;;;;6219328;23;20383;-89
2021/03/06 16:56:53;;;;;;;6.68;2.65;;;6.90;89.40;;;;;;6220510;22;20472;-88
2021/03/06 18:56:13;;;;;;;7.88;3.63;;;6.40;89.50;;;;;;6250063;23;20023;-93
2021/03/06 19:41:49;;;;;;;6.93;2.97;;;6.20;89.80;;;;;;6216581;23;20068;-84
2021/03/06 19:45:15;;;;;;;6.38;3.17;;;6.10;89.90;;;;;;6216215;23;20028;-84
2021/03/06 20:41:12;;;;;;;6.22;2.50;;;5.70;90.30;;;;;;6193806;23;20048;31
2021/03/06 20:43:48;;;;;;;6.47;2.67;;;5.60;90.30;;;;;;6184723;23;20028;-85
2021/03/06 20:46:14;;;;;;;6.97;2.65;;;5.60;90.30;;;;;;6186700;23;20024;-86
2021/03/06 20:52:32;;;;;;;7.75;2.70;;;5.50;90.30;;;;;;6183692;23;20480;-84
2021/03/06 20:55:47;;;;;;;9.20;3.05;;;5.50;90.30;;;;;;6187311;23;20044;-85
2021/03/06 20:58:19;;;;;;;7.70;3.60;;;5.50;90.40;;;;;;6096345;23;20041;-85
2021/03/06 21:00:51;;;;;;;8.20;3.40;;;5.50;90.50;;;;;;6095460;23;20502;-85
2021/03/06 21:04:07;;;;;;;7.50;2.90;;;5.40;90.50;;;;;;6092946;23;20019;-84
2021/03/06 21:33:54;;;;;;;8.82;3.30;;;4.90;90.60;;;;;;6247797;23;20078;-85
2021/03/06 21:40:30;;;;;;;8.10;2.85;;;4.80;90.60;;;;;;6217606;23;20075;-84
2021/03/06 21:43:15;;;;;;;7.18;3.08;;;4.70;90.60;;;;;;6245265;23;20016;-85
2021/03/06 21:45:42;;;;;;;7.82;3.10;;;4.70;90.60;;;;;;6245763;23;20019;-86
2021/03/06 21:48:20;;;;;;;5.80;2.95;;;4.70;90.70;;;;;;6247013;23;20012;-85
2021/03/06 21:50:46;;;;;;;9.80;3.40;;;4.60;90.70;;;;;;6246106;23;20016;-86
2021/03/06 21:53:15;;;;;;;7.95;3.10;;;4.60;90.70;;;;;;6246512;23;20610;-85
2021/03/06 21:55:40;;;;;;;6.13;3.47;;;4.60;91.00;;;;;;6246271;23;20027;-85
2021/03/06 21:58:50;;;;;;;7.50;3.47;;;4.50;90.70;;;;;;6246930;23;20012;-85
2021/03/06 22:01:47;;;;;;;7.05;3.65;;;4.40;90.70;;;;;;6242582;23;20499;-85
2021/03/06 22:04:13;;;;;;;7.45;3.35;;;4.40;90.80;;;;;;6245683;23;20019;-85
2021/03/06 22:06:47;;;;;;;7.40;3.60;;;4.40;90.70;;;;;;6246666;23;20376;-85
2021/03/06 22:09:50;;;;;;;6.95;3.15;;;4.30;90.70;;;;;;6246655;23;20016;-85
2021/03/06 22:12:16;;;;;;;8.65;3.63;;;4.30;90.80;;;;;;6246520;23;20091;-85
2021/03/06 22:15:25;;;;;;;7.97;3.65;;;4.20;90.60;;;;;;6246377;23;20460;-85
2021/03/06 22:17:51;;;;;;;7.47;3.92;;;4.20;90.80;;;;;;6241317;23;20024;-85
2021/03/06 22:20:18;;;;;;;7.50;3.72;;;4.10;90.80;;;;;;6246605;23;20147;-85
2021/03/06 22:22:53;;;;;;;7.57;3.50;;;4.10;90.90;;;;;;6245544;23;20058;-85
2021/03/06 22:25:33;;;;;;;7.72;3.55;;;4.00;90.90;;;;;;6244695;23;20027;-85
2021/03/06 22:27:59;;;;;;;6.90;3.60;;;4.00;91.00;;;;;;6246766;23;20051;-84
2021/03/06 22:30:28;;;;;;;8.43;4.38;;;4.00;91.10;;;;;;6246441;23;20020;-85
2021/03/06 22:33:09;;;;;;;10.27;3.58;;;4.00;91.20;;;;;;6245676;23;20013;-85
2021/03/06 22:38:16;;;;;;;7.68;3.92;;;3.90;91.40;;;;;;6154802;23;20072;-84
2021/03/06 22:40:42;;;;;;;9.20;3.80;;;3.90;91.30;;;;;;6156413;23;20025;-86
2021/03/06 22:43:07;;;;;;;8.10;4.03;;;3.90;91.30;;;;;;6156387;23;20017;-85
2021/03/06 22:45:35;;;;;;;6.88;3.75;;;3.80;91.30;;;;;;6155391;23;20028;-85
2021/03/06 22:48:01;;;;;;;11.63;3.90;;;3.80;91.20;;;;;;6156494;23;20014;-85
2021/03/06 22:50:27;;;;;;;9.20;4.07;;;3.70;91.20;;;;;;6155534;23;20024;-85
2021/03/06 22:52:53;;;;;;;7.40;3.90;;;3.70;91.20;;;;;;6154410;23;20045;-85
2021/03/06 22:55:18;;;;;;;7.50;4.10;;;3.70;91.20;;;;;;6155749;23;20339;-85
2021/03/06 22:57:44;;;;;;;9.70;3.95;;;3.60;91.10;;;;;;6156378;23;20028;-86
2021/03/06 23:00:22;;;;;;;8.07;3.97;;;3.60;91.10;;;;;;6155284;23;20454;-85
2021/03/06 23:02:50;;;;;;;9.07;3.83;;;3.60;91.20;;;;;;6156257;23;20069;-85
2021/03/06 23:05:15;;;;;;;9.60;4.25;;;3.50;91.10;;;;;;6155695;23;20045;-85
2021/03/06 23:07:41;;;;;;;7.70;3.72;;;3.50;91.10;;;;;;6155230;23;20168;-84
2021/03/06 23:10:08;;;;;;;9.05;4.00;;;3.40;91.10;;;;;;6156249;23;20080;-85
2021/03/06 23:12:33;;;;;;;8.55;3.90;;;3.40;91.10;;;;;;6156037;23;20017;-85
2021/03/06 23:15:06;;;;;;;8.82;3.92;;;3.40;91.10;;;;;;6154763;23;20069;-85
2021/03/06 23:17:37;;;;;;;7.83;3.83;;;3.40;91.20;;;;;;6155970;23;20029;-85
2021/03/06 23:20:14;;;;;;;9.98;4.05;;;3.30;91.40;;;;;;6155178;23;20024;-84
2021/03/06 23:22:40;;;;;;;10.63;4.32;;;3.30;91.40;;;;;;6154371;23;20020;-85
2021/03/06 23:25:07;;;;;;;9.25;4.43;;;3.30;91.50;;;;;;6155909;23;20028;-85
2021/03/06 23:27:32;;;;;;;7.18;3.85;;;3.20;91.40;;;;;;6154213;23;20477;-85
2021/03/06 23:29:58;;;;;;;7.22;4.10;;;3.20;91.40;;;;;;6155941;23;20097;-84
2021/03/06 23:32:24;;;;;;;9.82;3.95;;;3.20;91.30;;;;;;6155817;23;20453;-85
2021/03/06 23:34:50;;;;;;;8.90;4.13;;;3.10;91.40;;;;;;6155017;23;20033;-85
2021/03/06 23:37:15;;;;;;;9.00;3.72;;;3.10;91.40;;;;;;6189688;23;20362;-84
2021/03/06 23:39:41;;;;;;;9.32;4.28;;;3.10;91.40;;;;;;6215930;23;20310;-85
2021/03/06 23:42:07;;;;;;;10.00;4.25;;;3.10;91.50;;;;;;6214563;23;20080;-84
2021/03/06 23:44:32;;;;;;;8.95;3.92;;;3.10;91.60;;;;;;6214952;23;20024;-84
2021/03/06 23:46:58;;;;;;;8.18;3.80;;;3.10;91.60;;;;;;6215358;23;20364;-85
2021/03/06 23:49:24;;;;;;;8.43;4.22;;;3.00;91.60;;;;;;6214130;23;20016;-86
2021/03/06 23:51:50;;;;;;;11.30;4.38;;;3.00;91.60;;;;;;6215483;23;20103;-85
2021/03/06 23:54:15;;;;;;;9.63;3.80;;;2.90;91.40;;;;;;6214656;23;20020;-85
2021/03/06 23:56:41;;;;;;;9.23;4.20;;;2.90;91.40;;;;;;6214076;23;20017;-84
2021/03/06 23:59:07;;;;;;;9.88;4.30;;;2.90;91.40;;;;;;6215310;23;20098;-85
